Time;durP1;ratioP1;P1;durP2;ratioP2;P2;SDS_P1;SDS_P2;PMS_P1;PMS_P2;Temp;Humidity;BMP_temperature;BMP_pressure;BME280_temperature;BME280_humidity;BME280_pressure;Samples;Min_cycle;Max_cycle;Signal;HPM_P1;HPM_P2
2023/10/04 00:01:47;;;;;;;5.40;3.27;;;;;;;8.22;100.00;101607.34;4981180;28;20217;-74
2023/10/04 00:04:13;;;;;;;8.07;2.83;;;;;;;8.14;100.00;101604.38;4979161;28;20364;-73
2023/10/04 00:06:41;;;;;;;4.53;3.07;;;;;;;8.02;100.00;101612.69;4979688;28;20263;-73
2023/10/04 00:09:11;;;;;;;4.97;3.30;;;;;;;7.89;100.00;101607.69;4976972;28;20306;-73
2023/10/04 00:11:37;;;;;;;4.97;3.20;;;;;;;7.81;100.00;101606.47;4962437;28;20257;-74
2023/10/04 00:14:05;;;;;;;5.43;2.93;;;;;;;7.80;100.00;101608.19;4981872;28;20216;-73
2023/10/04 00:16:34;;;;;;;6.17;3.07;;;;;;;7.86;100.00;101605.81;4978435;28;20228;-73
2023/10/04 00:19:02;;;;;;;5.97;3.40;;;;;;;7.91;100.00;101613.94;4979445;28;20316;-73
2023/10/04 00:21:29;;;;;;;4.73;3.20;;;;;;;7.87;100.00;101617.28;4980199;28;20205;-73
2023/10/04 00:23:58;;;;;;;5.07;3.47;;;;;;;7.80;100.00;101618.75;4978883;28;22085;-73
2023/10/04 00:26:25;;;;;;;5.67;3.23;;;;;;;7.68;100.00;101617.31;4980060;28;20244;-73
2023/10/04 00:28:51;;;;;;;5.47;2.97;;;;;;;7.59;100.00;101623.03;4977753;28;20766;-73
2023/10/04 00:31:18;;;;;;;5.40;3.07;;;;;;;7.56;100.00;101630.81;4962527;28;20433;-73
2023/10/04 00:33:44;;;;;;;4.47;3.20;;;;;;;7.59;100.00;101638.88;4979647;28;20248;-73
2023/10/04 00:36:13;;;;;;;4.53;3.00;;;;;;;7.55;100.00;101639.56;4978348;28;20783;-73
2023/10/04 00:38:40;;;;;;;4.87;2.60;;;;;;;7.66;100.00;101634.81;4979164;28;20687;-73
2023/10/04 00:41:08;;;;;;;4.53;2.90;;;;;;;7.69;100.00;101645.47;4979656;28;20321;-73
2023/10/04 00:43:52;;;;;;;6.13;3.50;;;;;;;7.69;100.00;101643.75;4978992;28;20699;-73
2023/10/04 00:46:20;;;;;;;6.77;3.13;;;;;;;7.79;100.00;101642.41;4977194;28;20242;-73
2023/10/04 00:48:47;;;;;;;4.57;3.37;;;;;;;7.81;100.00;101627.56;4978968;28;20214;-73
2023/10/04 00:51:15;;;;;;;6.53;3.63;;;;;;;7.94;100.00;101643.09;4978606;28;20201;-73
2023/10/04 00:53:42;;;;;;;4.67;3.23;;;;;;;7.80;100.00;101649.50;4980494;28;20208;-73
2023/10/04 00:56:09;;;;;;;5.80;3.23;;;;;;;7.75;100.00;101643.13;4980824;28;20233;-73
2023/10/04 00:58:36;;;;;;;4.47;2.90;;;;;;;7.78;100.00;101648.53;4978468;28;20776;-72
2023/10/04 01:01:06;;;;;;;6.03;2.87;;;;;;;7.84;100.00;101646.16;4982227;28;20220;-73
2023/10/04 01:03:37;;;;;;;6.63;3.33;;;;;;;8.04;100.00;101647.94;4962609;28;20284;-73
2023/10/04 01:06:05;;;;;;;4.47;3.03;;;;;;;8.03;100.00;101651.44;4978066;28;20241;-73
2023/10/04 01:08:33;;;;;;;5.60;3.13;;;;;;;8.50;100.00;101654.31;4973027;28;21198;-73
2023/10/04 01:10:59;;;;;;;5.10;3.03;;;;;;;8.35;100.00;101651.91;4980843;28;20205;-73
2023/10/04 01:13:26;;;;;;;4.97;2.87;;;;;;;8.56;100.00;101652.84;4980185;28;20676;-73
2023/10/04 01:15:55;;;;;;;7.03;3.20;;;;;;;8.52;100.00;101652.66;4964302;28;20224;-73
2023/10/04 01:18:23;;;;;;;7.17;3.67;;;;;;;8.63;100.00;101661.91;4976459;28;20212;-73
2023/10/04 01:20:50;;;;;;;6.03;3.10;;;;;;;8.60;100.00;101661.78;4978909;28;20759;-73
2023/10/04 01:23:16;;;;;;;5.67;2.50;;;;;;;8.41;100.00;101665.41;4976783;28;20674;-73
2023/10/04 01:25:46;;;;;;;6.00;3.13;;;;;;;8.53;100.00;101665.91;4971102;28;20242;-73
2023/10/04 01:28:14;;;;;;;4.67;2.70;;;;;;;8.41;100.00;101674.22;4974391;28;20296;-73
2023/10/04 01:30:45;;;;;;;8.43;2.97;;;;;;;8.39;100.00;101665.31;4958280;28;20331;-73
2023/10/04 01:33:15;;;;;;;4.03;2.40;;;;;;;8.23;100.00;101672.47;4973821;28;20211;-73
2023/10/04 01:35:45;;;;;;;4.17;2.67;;;;;;;8.23;100.00;101660.19;4977853;28;20551;-73
2023/10/04 01:38:13;;;;;;;5.10;2.50;;;;;;;8.36;100.00;101675.75;4976964;28;20209;-73
2023/10/04 01:40:41;;;;;;;5.37;2.80;;;;;;;8.23;100.00;101675.13;4961667;28;20900;-72
2023/10/04 01:43:15;;;;;;;4.17;2.40;;;;;;;8.08;100.00;101663.06;4977428;28;20210;-73
2023/10/04 01:45:44;;;;;;;3.70;2.30;;;;;;;8.13;100.00;101664.19;4977356;28;20237;-73
2023/10/04 01:48:11;;;;;;;3.93;2.30;;;;;;;8.18;100.00;101667.91;4978068;28;20300;-73
2023/10/04 01:50:37;;;;;;;3.17;2.27;;;;;;;8.15;100.00;101672.16;4978152;28;20200;-73
2023/10/04 01:53:04;;;;;;;4.27;2.50;;;;;;;8.13;100.00;101664.19;4976430;28;20228;-73
2023/10/04 01:55:31;;;;;;;4.37;2.30;;;;;;;8.12;100.00;101656.19;4978135;28;20313;-73
2023/10/04 01:57:57;;;;;;;4.87;2.40;;;;;;;8.03;100.00;101655.81;4960533;28;20205;-73
2023/10/04 02:00:28;;;;;;;4.03;2.27;;;;;;;8.09;100.00;101651.69;4979190;28;20224;-70
2023/10/04 02:02:54;;;;;;;4.17;1.90;;;;;;;8.02;100.00;101651.34;4977021;28;20210;-71
2023/10/04 02:05:28;;;;;;;3.53;2.00;;;;;;;7.98;100.00;101647.66;4980079;28;20318;-71
2023/10/04 02:07:56;;;;;;;4.57;1.73;;;;;;;8.09;100.00;101648.16;4979540;28;20238;-71
2023/10/04 02:10:24;;;;;;;2.73;1.90;;;;;;;8.05;100.00;101647.13;4978083;28;20211;-71
2023/10/04 02:12:50;;;;;;;3.87;2.00;;;;;;;8.12;100.00;101645.63;4978098;28;20312;-71
2023/10/04 02:15:17;;;;;;;4.37;2.20;;;;;;;8.08;100.00;101649.00;4974759;28;20747;-72
2023/10/04 02:17:45;;;;;;;3.93;2.10;;;;;;;8.05;100.00;101643.56;4978217;28;20213;-71
2023/10/04 02:20:21;;;;;;;4.17;1.90;;;;;;;8.14;100.00;101643.97;4979053;28;20712;-72
2023/10/04 02:22:48;;;;;;;3.53;1.80;;;;;;;8.07;100.00;101642.81;4979455;28;20284;-72
2023/10/04 02:25:15;;;;;;;4.77;1.90;;;;;;;8.05;100.00;101638.31;4976128;28;20480;-72
2023/10/04 02:27:44;;;;;;;5.17;2.03;;;;;;;8.06;100.00;101637.47;4977066;28;20293;-72
2023/10/04 02:30:18;;;;;;;2.73;1.50;;;;;;;8.06;100.00;101633.09;4978453;28;20208;-72
2023/10/04 02:32:45;;;;;;;3.37;1.90;;;;;;;8.19;100.00;101639.78;4976521;28;20205;-71
2023/10/04 02:35:25;;;;;;;3.20;2.10;;;;;;;8.33;100.00;101637.72;4978239;28;20283;-72
2023/10/04 02:37:54;;;;;;;5.83;1.77;;;;;;;8.40;100.00;101634.53;4977661;28;20332;-71
2023/10/04 02:40:22;;;;;;;3.77;1.90;;;;;;;8.35;100.00;101642.25;4978500;28;20225;-71
2023/10/04 02:42:49;;;;;;;5.03;1.80;;;;;;;8.30;100.00;101637.59;4974245;28;20212;-71
2023/10/04 02:45:19;;;;;;;5.73;2.40;;;;;;;8.41;100.00;101633.72;4976228;28;20222;-71
2023/10/04 02:47:48;;;;;;;3.90;1.70;;;;;;;8.51;100.00;101624.44;4978758;28;20208;-71
2023/10/04 02:50:17;;;;;;;4.30;1.93;;;;;;;8.68;100.00;101624.28;4978751;28;20207;-71
2023/10/04 02:52:44;;;;;;;4.27;2.07;;;;;;;8.77;100.00;101629.03;4973562;28;20630;-71
2023/10/04 02:55:15;;;;;;;3.10;1.80;;;;;;;8.69;100.00;101639.28;4961297;28;20974;-71
2023/10/04 02:57:42;;;;;;;4.10;1.70;;;;;;;8.66;100.00;101640.91;4975729;28;20209;-71
2023/10/04 03:00:15;;;;;;;5.83;1.93;;;;;;;8.67;100.00;101643.63;4976050;28;20231;-71
2023/10/04 03:02:44;;;;;;;4.43;1.90;;;;;;;8.78;100.00;101634.38;4977964;28;20209;-71
2023/10/04 03:05:12;;;;;;;4.77;2.00;;;;;;;8.79;100.00;101630.91;4977397;28;20243;-72
2023/10/04 03:07:39;;;;;;;2.97;1.77;;;;;;;8.72;100.00;101633.22;4977458;28;20707;-72
2023/10/04 03:10:07;;;;;;;4.30;1.87;;;;;;;8.64;100.00;101637.31;4977638;28;20218;-71
2023/10/04 03:12:33;;;;;;;4.10;1.80;;;;;;;8.55;100.00;101632.56;4976537;28;20323;-72
2023/10/04 03:14:59;;;;;;;3.80;2.10;;;;;;;8.47;100.00;101629.59;4977068;28;20583;-71
2023/10/04 03:17:26;;;;;;;6.43;1.90;;;;;;;8.40;100.00;101629.25;4977189;28;20300;-71
2023/10/04 03:19:53;;;;;;;4.37;2.00;;;;;;;8.34;100.00;101623.72;4976026;28;20246;-71
2023/10/04 03:22:22;;;;;;;2.77;1.63;;;;;;;8.26;100.00;101627.75;4976482;28;20309;-71
2023/10/04 03:24:53;;;;;;;6.43;1.93;;;;;;;8.24;100.00;101617.13;4978632;28;20263;-71
2023/10/04 03:27:21;;;;;;;3.67;2.17;;;;;;;8.29;100.00;101615.59;4981164;28;20283;-72
2023/10/04 03:29:48;;;;;;;3.00;1.90;;;;;;;8.26;100.00;101623.38;4980320;28;20444;-71
2023/10/04 03:32:15;;;;;;;5.63;1.90;;;;;;;8.16;100.00;101627.38;4991540;28;20698;-72
2023/10/04 03:34:42;;;;;;;4.90;1.90;;;;;;;8.11;100.00;101634.19;4991863;28;20197;-72
2023/10/04 03:37:08;;;;;;;10.03;2.60;;;;;;;8.05;100.00;101636.56;4990780;28;20669;-72
2023/10/04 03:39:39;;;;;;;3.60;2.23;;;;;;;8.04;100.00;101637.41;4986139;28;20713;-72
2023/10/04 03:42:06;;;;;;;5.83;2.00;;;;;;;8.17;100.00;101634.44;4991927;28;20288;-72
2023/10/04 03:44:32;;;;;;;3.63;2.00;;;;;;;8.15;100.00;101644.03;4985360;28;20635;-72
2023/10/04 03:46:58;;;;;;;3.80;2.03;;;;;;;8.17;100.00;101634.44;4979270;28;20216;-72
2023/10/04 03:49:26;;;;;;;3.67;1.87;;;;;;;8.25;100.00;101625.94;4980548;28;20705;-72
2023/10/04 03:51:53;;;;;;;3.37;1.80;;;;;;;8.15;100.00;101627.31;4980999;28;20636;-72
2023/10/04 03:54:19;;;;;;;5.10;1.90;;;;;;;8.13;100.00;101634.25;4982515;28;20640;-72
2023/10/04 03:56:46;;;;;;;6.43;2.57;;;;;;;8.16;100.00;101630.00;4976859;28;20254;-72
2023/10/04 03:59:12;;;;;;;2.53;1.93;;;;;;;8.13;100.00;101632.50;4966032;28;20206;-71
2023/10/04 04:01:39;;;;;;;4.40;1.87;;;;;;;8.16;100.00;101632.66;4980123;28;20673;-71
2023/10/04 04:04:14;;;;;;;3.27;1.90;;;;;;;8.16;100.00;101626.47;4979705;28;20215;-72
2023/10/04 04:06:41;;;;;;;4.00;1.97;;;;;;;8.12;100.00;101627.16;4979767;28;20237;-72
2023/10/04 04:09:09;;;;;;;3.67;1.77;;;;;;;8.08;100.00;101635.78;4980589;28;20212;-72
2023/10/04 04:11:36;;;;;;;3.57;1.80;;;;;;;8.03;100.00;101639.97;4978842;28;20710;-72
2023/10/04 04:14:04;;;;;;;6.40;1.73;;;;;;;8.14;100.00;101639.59;4978590;28;20216;-71
2023/10/04 04:16:31;;;;;;;4.70;2.13;;;;;;;8.10;100.00;101626.19;4976100;28;20244;-71
2023/10/04 04:18:59;;;;;;;4.50;2.10;;;;;;;8.10;100.00;101620.94;4976572;28;20205;-72
2023/10/04 04:21:27;;;;;;;3.20;2.00;;;;;;;8.08;100.00;101620.88;4979163;28;20227;-71
2023/10/04 04:23:55;;;;;;;4.47;1.83;;;;;;;8.07;100.00;101621.69;4979305;28;20589;-71
2023/10/04 04:26:23;;;;;;;3.17;1.70;;;;;;;8.00;100.00;101610.78;4979114;28;20230;-71
2023/10/04 04:28:51;;;;;;;4.27;1.67;;;;;;;8.02;100.00;101614.44;4979631;28;20317;-71
2023/10/04 04:31:20;;;;;;;5.60;2.30;;;;;;;8.24;100.00;101621.50;4980878;28;20236;-71
2023/10/04 04:33:46;;;;;;;4.53;2.20;;;;;;;8.51;100.00;101630.63;4978923;28;21764;-71
2023/10/04 04:36:25;;;;;;;4.27;1.90;;;;;;;8.42;100.00;101611.78;4977843;28;20238;-71
2023/10/04 04:38:53;;;;;;;3.17;1.80;;;;;;;8.30;100.00;101614.75;4977567;28;20772;-71
2023/10/04 04:41:25;;;;;;;4.33;2.33;;;;;;;8.23;100.00;101610.06;4978346;28;20227;-71
2023/10/04 04:43:51;;;;;;;4.20;2.00;;;;;;;8.38;100.00;101623.00;4977068;28;20207;-71
2023/10/04 04:46:18;;;;;;;4.93;2.27;;;;;;;8.33;100.00;101612.28;4975802;28;20250;-71
2023/10/04 04:48:46;;;;;;;3.50;1.90;;;;;;;8.30;100.00;101625.31;4978311;28;20206;-71
2023/10/04 04:51:17;;;;;;;5.33;1.87;;;;;;;8.29;100.00;101617.31;4977401;28;20205;-71
2023/10/04 04:53:50;;;;;;;4.37;2.10;;;;;;;8.39;100.00;101625.72;4978573;28;20202;-71
2023/10/04 04:56:18;;;;;;;4.27;1.83;;;;;;;8.42;100.00;101632.91;4961616;28;20228;-71
2023/10/04 04:58:49;;;;;;;2.83;1.90;;;;;;;8.39;100.00;101630.09;4978889;28;20292;-71
2023/10/04 05:01:16;;;;;;;3.60;1.90;;;;;;;8.28;100.00;101629.63;4961369;28;20232;-71
2023/10/04 05:03:45;;;;;;;3.90;1.90;;;;;;;8.18;100.00;101622.16;4977946;28;20229;-71
2023/10/04 05:06:22;;;;;;;3.40;1.70;;;;;;;8.11;100.00;101618.34;4976828;28;20225;-71
2023/10/04 05:08:50;;;;;;;3.27;2.00;;;;;;;8.04;100.00;101626.84;4980793;28;20297;-71
2023/10/04 05:11:17;;;;;;;2.73;1.73;;;;;;;7.96;100.00;101625.59;4978898;28;20209;-71
2023/10/04 05:13:44;;;;;;;2.70;1.90;;;;;;;7.88;100.00;101623.47;4962400;28;20207;-71
2023/10/04 05:16:11;;;;;;;6.40;1.90;;;;;;;7.86;100.00;101637.47;4980414;28;20322;-71
2023/10/04 05:18:37;;;;;;;5.20;1.90;;;;;;;7.78;100.00;101641.50;4979488;28;20668;-71
2023/10/04 05:21:10;;;;;;;3.67;1.70;;;;;;;7.86;100.00;101647.13;4977957;28;20226;-71
2023/10/04 05:23:39;;;;;;;6.90;2.40;;;;;;;7.82;100.00;101648.72;4983787;28;20197;-72
2023/10/04 05:26:05;;;;;;;5.63;2.30;;;;;;;7.80;100.00;101655.66;4989112;28;20615;-71
2023/10/04 05:28:33;;;;;;;5.00;2.60;;;;;;;7.92;100.00;101659.69;4983840;28;20216;-71
2023/10/04 05:30:59;;;;;;;5.53;2.43;;;;;;;7.89;100.00;101651.63;4972247;28;20221;-71
2023/10/04 05:33:26;;;;;;;4.13;2.40;;;;;;;7.86;100.00;101657.69;4989027;28;20201;-71
2023/10/04 05:35:56;;;;;;;5.83;2.33;;;;;;;7.86;100.00;101657.69;4988751;28;20257;-71
2023/10/04 05:38:23;;;;;;;3.70;1.93;;;;;;;7.89;100.00;101660.44;4991799;28;20261;-71
2023/10/04 05:40:50;;;;;;;8.20;2.30;;;;;;;7.85;100.00;101659.41;4989943;28;20786;-71
2023/10/04 05:43:18;;;;;;;4.10;1.80;;;;;;;7.84;100.00;101668.16;4984787;28;20208;-71
2023/10/04 05:45:47;;;;;;;4.00;2.00;;;;;;;7.82;100.00;101661.91;4987130;28;20220;-71
2023/10/04 05:48:18;;;;;;;7.00;2.27;;;;;;;7.82;100.00;101658.38;4989139;28;20211;-71
2023/10/04 05:50:45;;;;;;;3.53;2.23;;;;;;;7.77;100.00;101658.16;4975839;28;20734;-76
2023/10/04 05:53:19;;;;;;;4.80;2.30;;;;;;;7.77;100.00;101663.44;4964526;28;20211;-76
2023/10/04 05:55:46;;;;;;;3.40;1.90;;;;;;;7.91;100.00;101673.69;4984920;28;20222;-74
2023/10/04 05:58:13;;;;;;;5.53;2.67;;;;;;;7.90;100.00;101678.06;4984078;28;20223;-75
2023/10/04 06:00:42;;;;;;;2.97;2.00;;;;;;;7.87;100.00;101685.84;4987197;28;20230;-75
2023/10/04 06:03:12;;;;;;;5.97;2.90;;;;;;;8.00;100.00;101693.47;4958188;28;20219;-75
2023/10/04 06:05:40;;;;;;;7.97;2.73;;;;;;;8.01;100.00;101689.13;4978478;28;20236;-74
2023/10/04 06:08:15;;;;;;;6.57;2.67;;;;;;;8.07;100.00;101695.56;4983755;28;20211;-75
2023/10/04 06:10:43;;;;;;;4.93;2.80;;;;;;;8.15;100.00;101690.63;4989074;28;20201;-76
2023/10/04 06:13:12;;;;;;;7.37;3.37;;;;;;;8.30;100.00;101695.66;4988134;28;20303;-76
2023/10/04 06:15:44;;;;;;;6.33;3.27;;;;;;;8.38;100.00;101687.25;4990385;28;20285;-76
2023/10/04 06:18:12;;;;;;;7.47;3.37;;;;;;;8.40;100.00;101687.34;4988599;28;20247;-74
2023/10/04 06:20:40;;;;;;;6.17;3.10;;;;;;;8.47;100.00;101690.31;4992459;28;20598;-75
2023/10/04 06:23:09;;;;;;;7.73;3.30;;;;;;;8.54;100.00;101704.69;4990213;28;20721;-76
2023/10/04 06:25:44;;;;;;;8.60;3.87;;;;;;;8.65;100.00;101710.41;4986673;28;20308;-75
2023/10/04 06:28:11;;;;;;;6.40;3.60;;;;;;;8.66;100.00;101710.47;4985199;28;20204;-75
2023/10/04 06:30:38;;;;;;;10.87;4.23;;;;;;;8.71;100.00;101705.38;4987488;28;20289;-76
2023/10/04 06:33:08;;;;;;;7.23;3.93;;;;;;;8.78;100.00;101700.41;4989644;28;20687;-75
2023/10/04 06:35:35;;;;;;;6.77;3.73;;;;;;;8.84;100.00;101710.38;4983781;28;20224;-75
2023/10/04 06:38:04;;;;;;;8.33;3.77;;;;;;;8.91;100.00;101720.34;4989850;28;20209;-75
2023/10/04 06:40:33;;;;;;;5.13;3.17;;;;;;;8.95;100.00;101716.97;4987839;28;20208;-74
2023/10/04 06:43:04;;;;;;;8.67;3.40;;;;;;;9.00;100.00;101714.53;4988104;28;20242;-77
2023/10/04 06:45:31;;;;;;;6.13;3.13;;;;;;;9.02;100.00;101719.03;4984078;28;20220;-75
2023/10/04 06:47:59;;;;;;;7.93;3.67;;;;;;;9.15;100.00;101723.06;4980959;28;20243;-74
2023/10/04 06:50:28;;;;;;;8.33;3.47;;;;;;;9.27;100.00;101726.22;4986425;28;20307;-75
2023/10/04 06:52:59;;;;;;;6.80;2.97;;;;;;;9.28;100.00;101725.38;4968528;28;20200;-75
2023/10/04 06:55:26;;;;;;;5.17;3.03;;;;;;;9.34;100.00;101724.72;4981463;28;20723;-75
2023/10/04 06:57:53;;;;;;;4.37;2.60;;;;;;;9.36;100.00;101736.25;4991114;28;20477;-75
2023/10/04 07:00:23;;;;;;;6.30;3.20;;;;;;;9.38;100.00;101740.75;4989602;28;20210;-76
2023/10/04 07:02:58;;;;;;;6.20;3.70;;;;;;;9.42;100.00;101755.91;5001426;28;20244;-75
2023/10/04 07:05:26;;;;;;;8.70;3.20;;;;;;;9.47;100.00;101758.72;5001954;28;20597;-75
2023/10/04 07:07:57;;;;;;;9.17;4.10;;;;;;;9.55;100.00;101753.72;4982942;28;20224;-76
2023/10/04 07:10:28;;;;;;;8.53;3.93;;;;;;;9.59;100.00;101740.69;4991225;28;20681;-77
2023/10/04 07:12:57;;;;;;;11.20;4.27;;;;;;;9.67;100.00;101744.56;4986821;28;20878;-76
2023/10/04 07:15:27;;;;;;;8.10;4.10;;;;;;;9.76;100.00;101756.31;4986228;28;20218;-76
2023/10/04 07:17:54;;;;;;;7.00;3.97;;;;;;;9.85;100.00;101759.31;4965839;28;20200;-74
2023/10/04 07:20:24;;;;;;;7.27;3.67;;;;;;;9.95;100.00;101754.41;4988806;28;20284;-73
2023/10/04 07:23:05;;;;;;;6.87;3.20;;;;;;;10.08;100.00;101757.56;4973747;28;20231;-76
2023/10/04 07:25:37;;;;;;;5.47;3.20;;;;;;;10.22;100.00;101756.34;4986245;28;20221;-75
2023/10/04 07:28:08;;;;;;;7.07;3.50;;;;;;;10.32;100.00;101751.44;4986750;28;20235;-75
2023/10/04 07:30:35;;;;;;;9.07;3.50;;;;;;;10.49;100.00;101764.41;4968469;28;20202;-74
2023/10/04 07:33:02;;;;;;;9.87;3.73;;;;;;;10.58;100.00;101762.97;4981224;28;20221;-74
2023/10/04 07:35:31;;;;;;;8.50;4.47;;;;;;;10.67;100.00;101763.28;4985742;28;20264;-73
2023/10/04 07:38:01;;;;;;;10.93;4.70;;;;;;;10.75;100.00;101768.84;4987874;28;20694;-73
2023/10/04 07:40:30;;;;;;;10.17;5.10;;;;;;;10.85;100.00;101770.09;4988429;28;20298;-73
2023/10/04 07:42:59;;;;;;;12.03;5.93;;;;;;;10.86;100.00;101770.13;4980879;28;20730;-73
2023/10/04 07:45:28;;;;;;;11.43;5.37;;;;;;;11.00;100.00;101775.91;4988509;28;20223;-73
2023/10/04 07:47:56;;;;;;;8.00;5.00;;;;;;;11.10;100.00;101772.69;4989485;28;20498;-73
2023/10/04 07:50:23;;;;;;;9.63;5.30;;;;;;;11.14;100.00;101766.63;4986726;28;20673;-73
2023/10/04 07:52:52;;;;;;;9.63;5.73;;;;;;;11.24;100.00;101773.16;4985351;28;20218;-73
2023/10/04 07:55:19;;;;;;;8.67;4.93;;;;;;;11.32;100.00;101773.41;4983088;28;20234;-72
2023/10/04 07:57:46;;;;;;;9.37;5.30;;;;;;;11.42;100.00;101784.38;4985085;28;20208;-72
2023/10/04 08:00:14;;;;;;;7.97;4.60;;;;;;;11.50;100.00;101781.94;4983441;28;20636;-72
2023/10/04 08:02:49;;;;;;;10.47;4.10;;;;;;;11.55;100.00;101778.59;4987243;28;20664;-73
2023/10/04 08:05:24;;;;;;;7.50;3.60;;;;;;;11.64;100.00;101777.09;4981709;28;20229;-73
2023/10/04 08:07:56;;;;;;;6.67;3.50;;;;;;;11.70;100.00;101780.84;4987516;28;20258;-73
2023/10/04 08:10:25;;;;;;;5.33;2.83;;;;;;;11.81;100.00;101781.19;4969318;28;20199;-75
2023/10/04 08:12:54;;;;;;;9.07;2.83;;;;;;;11.88;100.00;101777.88;4991164;28;20200;-74
2023/10/04 08:15:27;;;;;;;5.50;2.80;;;;;;;12.02;100.00;101773.91;4986685;28;20223;-77
2023/10/04 08:17:55;;;;;;;5.23;2.30;;;;;;;12.09;100.00;101767.91;4990296;28;20291;-75
2023/10/04 08:20:29;;;;;;;5.97;2.23;;;;;;;12.24;100.00;101772.75;4992676;28;20687;-75
2023/10/04 08:22:57;;;;;;;6.67;2.07;;;;;;;12.32;100.00;101771.22;4990859;28;20222;-76
2023/10/04 08:25:25;;;;;;;4.23;1.80;;;;;;;12.47;100.00;101773.41;4994019;28;20224;-74
2023/10/04 08:27:51;;;;;;;5.50;1.67;;;;;;;12.62;100.00;101773.81;4993049;28;20211;-79
2023/10/04 08:30:18;;;;;;;5.17;1.77;;;;;;;12.78;100.00;101770.72;4990866;28;20218;-76
2023/10/04 08:32:49;;;;;;;2.97;1.60;;;;;;;12.84;100.00;101768.25;4992830;28;20204;-82
2023/10/04 08:35:24;;;;;;;6.37;1.80;;;;;;;13.03;100.00;101777.56;4990588;28;20733;-81
2023/10/04 08:37:55;;;;;;;5.83;1.97;;;;;;;13.10;100.00;101779.53;4990572;28;20205;-84
2023/10/04 08:40:23;;;;;;;3.13;1.77;;;;;;;13.26;100.00;101772.88;4994931;28;20212;-82
2023/10/04 08:42:50;;;;;;;2.90;1.50;;;;;;;13.48;100.00;101777.84;4989994;28;20224;-80
2023/10/04 08:45:21;;;;;;;4.53;1.57;;;;;;;13.57;100.00;101776.25;4993686;28;20256;-83
2023/10/04 08:47:52;;;;;;;7.87;1.80;;;;;;;13.76;100.00;101781.16;4989603;28;20255;-83
2023/10/04 08:50:41;;;;;;;3.10;1.47;;;;;;;13.90;100.00;101768.13;4989148;28;20201;-82
2023/10/04 08:53:36;;;;;;;3.30;1.57;;;;;;;14.11;100.00;101769.50;4994395;28;20204;-83
2023/10/04 08:56:08;;;;;;;3.13;1.80;;;;;;;14.28;100.00;101766.28;4988828;28;20235;-82
2023/10/04 08:58:36;;;;;;;3.43;1.53;;;;;;;14.40;100.00;101769.19;4989470;28;20288;-79
2023/10/04 09:01:06;;;;;;;4.33;1.60;;;;;;;14.57;100.00;101765.13;4989933;28;20209;-78
2023/10/04 09:03:35;;;;;;;3.93;1.50;;;;;;;14.73;100.00;101768.97;4974588;28;20213;-77
2023/10/04 09:06:05;;;;;;;4.70;2.17;;;;;;;14.82;100.00;101773.59;4994580;28;20856;-75
2023/10/04 09:08:31;;;;;;;4.80;1.50;;;;;;;14.93;100.00;101772.91;4995433;28;20228;-76
2023/10/04 09:10:58;;;;;;;5.33;1.33;;;;;;;14.99;100.00;101780.13;4993351;28;20201;-75
2023/10/04 09:13:25;;;;;;;4.43;1.40;;;;;;;14.92;100.00;101786.22;4990939;28;20201;-77
2023/10/04 09:15:54;;;;;;;3.43;1.43;;;;;;;14.88;100.00;101774.63;4993931;28;20228;-77
2023/10/04 09:18:28;;;;;;;5.50;1.70;;;;;;;14.92;100.00;101779.13;4994134;28;20208;-76
2023/10/04 09:20:55;;;;;;;9.67;1.60;;;;;;;15.11;100.00;101780.31;4993858;28;20208;-77
2023/10/04 09:23:22;;;;;;;4.13;1.43;;;;;;;15.21;100.00;101779.63;4990800;28;20236;-77
2023/10/04 09:25:55;;;;;;;4.53;1.70;;;;;;;15.05;100.00;101790.91;4973998;28;20221;-76
2023/10/04 09:28:37;;;;;;;4.20;1.50;;;;;;;15.24;100.00;101782.34;4994414;28;20291;-76
2023/10/04 09:31:11;;;;;;;7.20;1.90;;;;;;;15.26;100.00;101787.72;4990734;28;20208;-76
2023/10/04 09:33:38;;;;;;;4.30;1.80;;;;;;;15.39;100.00;101773.69;4990956;28;20308;-76
2023/10/04 09:36:06;;;;;;;3.77;1.73;;;;;;;15.71;100.00;101774.22;4979168;28;20224;-77
2023/10/04 09:38:35;;;;;;;4.73;1.90;;;;;;;15.79;100.00;101761.88;4993842;28;20208;-75
2023/10/04 09:41:04;;;;;;;5.47;1.77;;;;;;;15.79;100.00;101767.22;4977798;28;20201;-76
2023/10/04 09:43:36;;;;;;;5.07;1.80;;;;;;;15.85;100.00;101766.38;4973571;28;20213;-77
2023/10/04 09:46:11;;;;;;;5.37;1.70;;;;;;;16.09;100.00;101765.84;4987064;28;20707;-76
2023/10/04 09:48:43;;;;;;;5.57;1.70;;;;;;;16.23;100.00;101770.47;4992157;28;20490;-75
2023/10/04 09:51:12;;;;;;;3.53;1.57;;;;;;;16.41;100.00;101764.47;4984548;28;20201;-77
2023/10/04 09:53:39;;;;;;;4.77;1.90;;;;;;;16.51;100.00;101758.31;4991180;28;20213;-76
2023/10/04 09:56:11;;;;;;;3.17;1.57;;;;;;;16.66;100.00;101759.41;5011054;23;20234;-77
2023/10/04 09:58:48;;;;;;;3.50;1.90;;;;;;;16.84;100.00;101767.63;4990009;28;20781;-75
2023/10/04 10:01:19;;;;;;;4.20;1.60;;;;;;;16.90;99.25;101757.88;4972053;28;20235;-74
2023/10/04 10:03:49;;;;;;;3.77;1.50;;;;;;;17.15;95.75;101753.63;4971602;28;20295;-74
2023/10/04 10:06:23;;;;;;;4.67;1.60;;;;;;;17.22;91.10;101754.59;4985713;28;20476;-75
2023/10/04 10:08:58;;;;;;;5.23;1.70;;;;;;;17.04;92.50;101751.75;4970527;28;20204;-75
2023/10/04 10:11:26;;;;;;;3.63;1.50;;;;;;;16.95;92.99;101755.22;4982198;28;20208;-76
2023/10/04 10:13:55;;;;;;;3.63;1.40;;;;;;;16.90;91.78;101757.88;4984613;28;20204;-75
2023/10/04 10:16:23;;;;;;;5.50;1.70;;;;;;;17.05;91.75;101754.44;4972341;28;20217;-75
2023/10/04 10:18:52;;;;;;;6.93;2.00;;;;;;;17.12;91.01;101750.00;4972166;28;20251;-75
2023/10/04 10:21:18;;;;;;;3.63;1.90;;;;;;;17.18;90.52;101750.97;4971279;28;20209;-74
2023/10/04 10:23:55;;;;;;;5.80;1.80;;;;;;;17.37;90.93;101752.00;4968094;28;20217;-75
2023/10/04 10:26:23;;;;;;;5.13;1.70;;;;;;;17.48;84.41;101742.25;4990517;28;20332;-76
2023/10/04 10:28:59;;;;;;;3.90;1.63;;;;;;;17.37;81.52;101735.94;4964757;28;20213;-74
2023/10/04 10:31:26;;;;;;;6.03;2.10;;;;;;;17.30;84.06;101742.16;4986398;28;20208;-73
2023/10/04 10:33:56;;;;;;;4.43;1.70;;;;;;;17.42;87.12;101744.91;4983109;28;20262;-75
2023/10/04 10:36:25;;;;;;;4.13;1.70;;;;;;;17.50;81.89;101740.50;4984136;28;20220;-74
2023/10/04 10:38:54;;;;;;;5.37;2.37;;;;;;;17.65;82.28;101738.81;4984369;28;20513;-73
2023/10/04 10:41:34;;;;;;;3.80;2.07;;;;;;;17.58;81.42;101732.50;4967537;28;20232;-74
2023/10/04 10:44:30;;;;;;;5.27;2.03;;;;;;;17.69;82.67;101744.22;4979823;28;20627;-73
2023/10/04 10:47:15;;;;;;;5.77;2.47;;;;;;;18.01;82.96;101736.38;4984367;28;20228;-74
2023/10/04 10:49:52;;;;;;;4.77;1.80;;;;;;;18.50;77.81;101731.16;4987103;28;20707;-73
2023/10/04 10:52:39;;;;;;;5.97;1.83;;;;;;;18.91;75.90;101728.56;4986553;28;20673;-74
2023/10/04 10:55:14;;;;;;;6.03;1.88;;;;;;;19.13;73.82;101728.56;4977626;28;20787;-73
2023/10/04 10:57:43;;;;;;;5.63;1.80;;;;;;;19.42;72.97;101733.03;4986534;28;20582;-75
2023/10/04 11:00:21;;;;;;;6.80;2.17;;;;;;;19.36;67.83;101722.28;4989137;28;20205;-76
2023/10/04 11:02:49;;;;;;;5.78;1.75;;;;;;;19.29;69.08;101727.69;4986132;28;20303;-75
2023/10/04 11:05:16;;;;;;;8.70;2.53;;;;;;;19.62;70.54;101719.59;4987733;28;20224;-76
2023/10/04 11:07:48;;;;;;;3.30;1.95;;;;;;;19.70;66.70;101727.63;4985815;28;20216;-76
2023/10/04 11:10:16;;;;;;;5.70;2.55;;;;;;;20.01;66.04;101725.72;4988359;28;20205;-74
2023/10/04 11:12:44;;;;;;;9.95;3.72;;;;;;;20.12;64.57;101717.63;4987290;28;20779;-75
2023/10/04 11:15:11;;;;;;;8.63;3.13;;;;;;;20.19;65.97;101717.59;4986171;28;20582;-76
2023/10/04 11:17:38;;;;;;;7.05;2.90;;;;;;;20.27;64.93;101721.13;4976254;28;20228;-76
2023/10/04 11:20:17;;;;;;;8.77;2.90;;;;;;;20.79;62.68;101720.81;4972878;28;20559;-76
2023/10/04 11:22:45;;;;;;;7.32;2.33;;;;;;;21.08;59.41;101709.81;4976666;28;20303;-76
2023/10/04 11:25:14;;;;;;;5.25;2.40;;;;;;;20.93;61.60;101712.66;4968917;28;20236;-75
2023/10/04 11:27:43;;;;;;;4.55;1.85;;;;;;;21.41;59.18;101710.47;4973096;28;20662;-75
2023/10/04 11:30:13;;;;;;;4.60;1.98;;;;;;;21.73;59.70;101716.41;4976848;28;20423;-75
2023/10/04 11:32:46;;;;;;;7.97;2.53;;;;;;;21.47;57.87;101711.28;4975547;28;20234;-75
2023/10/04 11:35:22;;;;;;;5.10;2.10;;;;;;;20.86;59.04;101689.38;4975154;28;20229;-75